Strona główna
METAR-TAF:

METAR-TAF

Lotnisko :

Port lotniczy Southampton

Southampton, Anglia

Szerokość geograficzna: 50-54N, Długość geograficzna: 001-24W, wysokość: 9 m

Aktualna obserwacja pogody

Raport powstał 42 minut temu, godzina 10:20 UTC
Wiatr 10 kt od zachodnio-północny zachód, zmienny między zachodnio-południowy zachód i północny zachód
Temperatura 19°C
Wilgotność 64%
Ciśnienie 1011 hPa
Widzialność 10 km lub więcej
Mało chmury na wysokości 2600 ft

METAR: EGHI 181020Z 29010KT 240V320 9999 FEW026 19/12 Q1011

czas: 12:02 (11:02 UTC)

Prognoza

Raport powstał 2 godziny i 58 minut temu, godzina 08:04 UTC
Prognoza ważna od 18 godzina 09 UTC do 18 godzina 18 UTC
Wiatr 9 kt od południowo-południowy zachód
Widzialność: 5000 m
Przerywane chmury na wysokości 900 ft
mżawka
Stopniowe zmiany
od 18 godzina 09 UTC do 18 godzina 11 UTC
Wiatr 12 kt od zachód
Widzialność 10 km lub więcej
Mało chmury na wysokości 2000 ft

TAF: EGHI 180804Z 1809/1818 21009KT 5000 DZ BKN009 BECMG 1809/1811 27012KT 9999 NSW FEW020

Obserwacja i prognoza pogody dla ponad 4000 lotnisk (raport METAR i TAF).

Dostępne stacje oznaczono żółtymi i czerwonymi punktami na mapie.

Najedź kursorem aby zobaczyć nazwę stacji.

Kliknij aby zobaczyć obserwacje i prognozy pogody.

Aby zmienić mapę: kliknij na zielony przycisk z czarnym krzyżykiem, aby powiększyć; na zielony przycisk z myślnikiem, aby pomniejszyć; na zielone strzałki, aby przejść do map sąsiednich.


METAR-TAF: